createdAt,value
2018-04-19T00:00:00.301Z,95.08
2018-04-19T00:02:28.602Z,94.63
2018-04-19T00:04:56.882Z,94.72
2018-04-19T00:07:25.235Z,94.43
2018-04-19T00:09:53.640Z,95.00
2018-04-19T00:12:22.010Z,95.18
2018-04-19T00:14:50.398Z,95.39
2018-04-19T00:17:18.688Z,95.12
2018-04-19T00:19:47.029Z,95.14
2018-04-19T00:22:15.382Z,95.70
2018-04-19T00:24:43.692Z,94.98
2018-04-19T00:27:12.012Z,95.08
2018-04-19T00:29:40.294Z,95.81
2018-04-19T00:32:08.577Z,95.43
2018-04-19T00:34:37.023Z,94.87
2018-04-19T00:37:05.410Z,94.97
2018-04-19T00:39:33.733Z,94.96
2018-04-19T00:42:02.004Z,95.24
2018-04-19T00:44:30.258Z,95.50
2018-04-19T00:46:58.630Z,95.62
2018-04-19T00:49:26.911Z,95.78
2018-04-19T00:51:55.195Z,95.62
2018-04-19T00:54:23.475Z,95.46
2018-04-19T00:56:51.763Z,95.72
2018-04-19T00:59:20.216Z,95.03
2018-04-19T01:01:48.501Z,95.32
2018-04-19T01:04:16.778Z,95.58
2018-04-19T01:06:45.065Z,95.67
2018-04-19T01:09:13.335Z,95.87
2018-04-19T01:11:41.820Z,95.57
2018-04-19T01:14:10.293Z,96.08
2018-04-19T01:16:38.769Z,96.05
2018-04-19T01:19:07.015Z,96.24
2018-04-19T01:21:35.316Z,96.13
2018-04-19T01:24:03.620Z,95.44
2018-04-19T01:26:31.978Z,95.72
2018-04-19T01:29:00.250Z,95.97
2018-04-19T01:31:28.543Z,96.71
2018-04-19T01:33:56.815Z,97.11
2018-04-19T01:36:26.552Z,96.48
2018-04-19T01:38:54.866Z,96.16
2018-04-19T01:41:23.155Z,96.67
2018-04-19T01:43:51.467Z,96.54
2018-04-19T01:46:19.779Z,95.64
2018-04-19T01:48:48.035Z,96.01
2018-04-19T01:51:16.471Z,96.60
2018-04-19T01:53:44.721Z,96.63
2018-04-19T01:56:13.023Z,96.18
2018-04-19T01:58:41.271Z,95.98
2018-04-19T02:01:09.591Z,96.47
2018-04-19T02:03:37.834Z,97.00
2018-04-19T02:06:06.130Z,95.98
2018-04-19T02:08:34.743Z,95.92
2018-04-19T02:11:03.090Z,96.09
2018-04-19T02:13:31.569Z,96.46
2018-04-19T02:15:59.867Z,97.33
2018-04-19T02:18:28.189Z,96.34
2018-04-19T02:20:56.562Z,96.00
2018-04-19T02:23:24.835Z,96.17
2018-04-19T02:25:53.222Z,96.63
2018-04-19T02:28:21.533Z,96.96
2018-04-19T02:30:49.823Z,97.54
2018-04-19T02:33:18.099Z,97.65
2018-04-19T02:35:46.409Z,97.25
2018-04-19T02:38:14.728Z,97.40
2018-04-19T02:40:43.059Z,96.98
2018-04-19T02:43:11.386Z,97.64
2018-04-19T02:45:39.702Z,97.75
2018-04-19T02:48:07.999Z,97.52
2018-04-19T02:50:36.363Z,97.19
2018-04-19T02:53:04.648Z,97.18
2018-04-19T02:55:33.096Z,97.63
2018-04-19T02:58:01.504Z,97.77
2018-04-19T03:00:29.846Z,98.17
2018-04-19T03:02:58.127Z,98.55
2018-04-19T03:05:26.434Z,98.17
2018-04-19T03:07:54.727Z,97.52
2018-04-19T03:10:23.148Z,96.96
2018-04-19T03:12:51.427Z,97.76
2018-04-19T03:15:19.714Z,97.97
2018-04-19T03:17:47.983Z,98.61
2018-04-19T03:20:16.260Z,98.04
2018-04-19T03:22:44.705Z,98.17
2018-04-19T03:25:12.997Z,98.65
2018-04-19T03:27:41.286Z,98.31
2018-04-19T03:30:09.613Z,98.71
2018-04-19T03:32:37.874Z,98.53
2018-04-19T03:35:06.322Z,98.08
2018-04-19T03:37:34.577Z,97.80
2018-04-19T03:40:02.868Z,97.59
2018-04-19T03:42:31.359Z,98.09
2018-04-19T03:44:59.818Z,97.98
2018-04-19T03:47:28.125Z,98.29
2018-04-19T03:49:56.392Z,98.51
2018-04-19T03:52:24.953Z,98.80
2018-04-19T03:54:53.303Z,98.21
2018-04-19T03:57:21.671Z,98.77
2018-04-19T03:59:50.078Z,98.03
2018-04-19T04:08:09.859Z,98.18
2018-04-19T04:10:38.391Z,97.74
2018-04-19T04:13:07.287Z,97.90
2018-04-19T04:15:36.203Z,98.56
2018-04-19T04:20:18.499Z,97.85
2018-04-19T04:23:15.293Z,97.65
2018-04-19T04:25:44.097Z,97.72
2018-04-19T04:28:12.723Z,97.75
2018-04-19T04:30:41.271Z,97.75
2018-04-19T04:33:09.880Z,97.32
2018-04-19T04:35:38.806Z,97.48
2018-04-19T04:38:07.305Z,96.94
2018-04-19T04:40:35.916Z,97.00
2018-04-19T04:43:04.453Z,97.03
2018-04-19T04:45:33.165Z,97.65
2018-04-19T04:48:01.952Z,97.20
2018-04-19T04:50:30.780Z,97.05
2018-04-19T04:52:59.302Z,97.11
2018-04-19T04:55:27.843Z,97.43
2018-04-19T04:57:56.444Z,97.91
2018-04-19T05:00:24.979Z,97.34
2018-04-19T05:02:53.559Z,97.03
2018-04-19T05:05:22.212Z,95.69
2018-04-19T05:07:50.900Z,94.53
2018-04-19T05:10:19.463Z,94.65
2018-04-19T05:12:48.383Z,95.83
2018-04-19T05:15:17.160Z,95.56
2018-04-19T05:17:46.024Z,94.91
2018-04-19T05:20:14.727Z,93.96
2018-04-19T05:22:43.211Z,94.88
2018-04-19T05:25:11.728Z,94.75
2018-04-19T05:27:40.334Z,93.38
2018-04-19T05:30:09.120Z,92.21
2018-04-19T05:32:37.707Z,92.36
2018-04-19T05:35:06.256Z,92.83
2018-04-19T05:37:34.993Z,91.45
2018-04-19T05:40:03.755Z,90.34
2018-04-19T05:42:32.295Z,89.71
2018-04-19T05:45:01.167Z,88.99
2018-04-19T05:47:30.139Z,88.47
2018-04-19T05:49:58.732Z,88.15
2018-04-19T05:52:27.435Z,87.28
2018-04-19T05:54:56.134Z,86.47
2018-04-19T05:57:25.108Z,85.87
2018-04-19T05:59:53.680Z,85.54
2018-04-19T06:02:22.264Z,85.16
2018-04-19T06:04:50.759Z,84.91
2018-04-19T06:07:19.384Z,84.94
2018-04-19T06:09:48.055Z,83.96
2018-04-19T06:12:16.762Z,83.18
2018-04-19T06:14:45.340Z,82.39
2018-04-19T06:17:13.926Z,81.24
2018-04-19T06:19:42.525Z,79.12
2018-04-19T06:22:11.229Z,78.44
2018-04-19T06:24:39.728Z,77.12
2018-04-19T06:27:08.256Z,76.48
2018-04-19T06:29:38.117Z,74.61
2018-04-19T06:32:07.063Z,73.81
2018-04-19T06:34:35.671Z,73.77
2018-04-19T06:38:03.628Z,70.74
2018-04-19T06:40:32.259Z,70.27
2018-04-19T06:43:00.803Z,70.14
2018-04-19T06:45:29.413Z,69.03
2018-04-19T06:47:57.928Z,68.74
2018-04-19T06:50:27.583Z,68.54
2018-04-19T06:52:56.476Z,67.49
2018-04-19T06:55:25.380Z,67.16
2018-04-19T06:57:53.891Z,66.46
2018-04-19T07:00:22.447Z,67.15
2018-04-19T07:02:51.013Z,67.15
2018-04-19T07:05:19.924Z,66.41
2018-04-19T07:07:48.544Z,65.25
2018-04-19T07:10:17.142Z,64.66
2018-04-19T07:12:45.708Z,65.69
2018-04-19T07:15:14.285Z,65.87
2018-04-19T07:17:43.628Z,65.69
2018-04-19T07:20:12.175Z,65.97
2018-04-19T07:22:40.711Z,64.97
2018-04-19T07:25:09.381Z,64.76
2018-04-19T07:27:37.970Z,64.89
2018-04-19T07:30:06.628Z,65.78
2018-04-19T07:32:35.155Z,65.34
2018-04-19T07:35:03.776Z,65.34
2018-04-19T07:37:32.300Z,63.50
2018-04-19T07:40:00.888Z,63.56
2018-04-19T07:42:29.642Z,62.70
2018-04-19T07:44:58.256Z,63.39
2018-04-19T07:47:26.829Z,62.59
2018-04-19T07:49:55.467Z,62.61
2018-04-19T07:52:24.063Z,62.80
2018-04-19T07:54:59.642Z,61.84
2018-04-19T07:57:28.325Z,62.74
2018-04-19T07:59:56.869Z,62.90
2018-04-19T08:02:25.410Z,62.83
2018-04-19T08:04:53.972Z,61.36
2018-04-19T08:07:22.541Z,61.03
2018-04-19T08:09:51.084Z,61.16
2018-04-19T08:12:19.782Z,60.88
2018-04-19T08:14:48.304Z,61.37
2018-04-19T08:17:16.868Z,60.27
2018-04-19T08:19:45.620Z,60.66
2018-04-19T08:22:14.231Z,60.03
2018-04-19T08:24:42.789Z,60.18
2018-04-19T08:27:11.635Z,60.29
2018-04-19T08:29:40.441Z,59.52
2018-04-19T08:32:09.096Z,58.27
2018-04-19T08:34:37.723Z,59.77
2018-04-19T08:37:06.493Z,58.72
2018-04-19T08:39:34.995Z,57.92
2018-04-19T08:42:03.843Z,58.72
2018-04-19T08:44:32.506Z,57.48
2018-04-19T08:47:01.115Z,57.10
2018-04-19T08:49:29.655Z,56.33
2018-04-19T08:51:58.243Z,56.63
2018-04-19T08:54:26.804Z,55.49
2018-04-19T08:56:55.446Z,56.32
2018-04-19T08:59:24.219Z,56.08
2018-04-19T09:01:52.888Z,56.04
2018-04-19T09:04:21.458Z,55.35
2018-04-19T09:06:50.020Z,55.38
2018-04-19T09:09:18.535Z,55.75
2018-04-19T09:11:47.165Z,56.14
2018-04-19T09:14:15.822Z,55.57
2018-04-19T09:16:44.607Z,55.76
2018-04-19T09:19:13.263Z,54.04
2018-04-19T09:21:41.964Z,54.64
2018-04-19T09:24:10.536Z,54.17
2018-04-19T09:26:39.372Z,53.48
2018-04-19T09:29:08.091Z,52.90
2018-04-19T09:31:36.702Z,52.93
2018-04-19T09:34:05.213Z,53.34
2018-04-19T09:36:33.877Z,53.15
2018-04-19T09:39:02.505Z,53.13
2018-04-19T09:41:31.268Z,52.45
2018-04-19T09:43:59.801Z,51.37
2018-04-19T09:46:28.402Z,51.69
2018-04-19T09:48:56.907Z,51.70
2018-04-19T09:51:25.778Z,52.72
2018-04-19T09:53:54.385Z,51.99
2018-04-19T09:56:22.989Z,50.66
2018-04-19T09:59:00.363Z,51.09
2018-04-19T10:01:28.936Z,49.58
2018-04-19T10:03:59.596Z,49.82
2018-04-19T10:06:28.339Z,48.64
2018-04-19T10:08:57.021Z,49.36
2018-04-19T10:11:25.716Z,48.71
2018-04-19T10:13:54.359Z,49.34
2018-04-19T10:16:23.107Z,48.75
2018-04-19T10:18:51.639Z,48.11
2018-04-19T10:21:20.721Z,47.99
2018-04-19T10:23:49.441Z,45.91
2018-04-19T10:26:18.276Z,47.24
2018-04-19T10:28:46.905Z,49.13
2018-04-19T10:31:15.652Z,46.42
2018-04-19T10:33:44.346Z,46.26
2018-04-19T10:36:12.871Z,47.21
2018-04-19T10:38:41.657Z,47.58
2018-04-19T10:41:10.195Z,46.70
2018-04-19T10:43:38.687Z,45.56
2018-04-19T10:46:07.523Z,44.65
2018-04-19T10:48:36.070Z,44.00
2018-04-19T10:51:04.852Z,45.53
2018-04-19T10:53:33.387Z,44.58
2018-04-19T10:56:02.263Z,44.26
2018-04-19T10:58:30.927Z,42.70
2018-04-19T11:00:59.686Z,41.74
2018-04-19T11:03:28.559Z,38.68
2018-04-19T11:05:57.247Z,40.40
2018-04-19T11:08:25.881Z,38.59
2018-04-19T11:10:55.104Z,39.29
2018-04-19T11:13:23.842Z,39.65
2018-04-19T11:15:52.726Z,39.66
2018-04-19T11:18:21.328Z,38.92
2018-04-19T11:20:49.936Z,37.23
2018-04-19T11:23:18.432Z,37.13
2018-04-19T11:25:47.512Z,36.40
2018-04-19T11:28:16.338Z,36.61
2018-04-19T11:30:46.029Z,35.41
2018-04-19T11:33:14.543Z,36.78
2018-04-19T11:35:43.171Z,37.91
2018-04-19T11:38:11.830Z,35.42
2018-04-19T11:40:40.572Z,36.54
2018-04-19T11:43:09.091Z,36.88
2018-04-19T11:45:37.644Z,34.63
2018-04-19T11:48:06.160Z,35.17
2018-04-19T11:50:34.888Z,34.30
2018-04-19T11:53:03.747Z,36.22
2018-04-19T11:55:32.416Z,33.33
2018-04-19T11:58:01.185Z,32.07
2018-04-19T12:00:29.855Z,33.23
2018-04-19T12:02:58.693Z,33.01
2018-04-19T12:05:27.236Z,31.78
2018-04-19T12:07:55.873Z,32.40
2018-04-19T12:10:24.496Z,31.11
2018-04-19T12:12:53.155Z,30.81
2018-04-19T12:15:21.664Z,30.82
2018-04-19T12:17:50.158Z,31.21
2018-04-19T12:20:18.728Z,30.64
2018-04-19T12:22:47.950Z,29.66
2018-04-19T12:25:16.523Z,30.48
2018-04-19T12:27:45.040Z,29.12
2018-04-19T12:30:13.667Z,30.27
2018-04-19T12:32:42.236Z,29.01
2018-04-19T12:35:10.966Z,29.89
2018-04-19T12:37:39.597Z,29.28
2018-04-19T12:40:08.243Z,26.70
2018-04-19T12:42:36.863Z,27.68
2018-04-19T12:45:05.430Z,30.57
2018-04-19T12:47:34.247Z,27.94
2018-04-19T12:50:02.737Z,26.67
2018-04-19T12:52:31.384Z,26.54
2018-04-19T12:55:00.108Z,28.46
2018-04-19T12:57:28.788Z,29.23
2018-04-19T12:59:57.453Z,27.97
2018-04-19T13:02:26.287Z,26.05
2018-04-19T13:04:54.981Z,27.34
2018-04-19T13:07:23.740Z,27.43
2018-04-19T13:09:52.587Z,26.85
2018-04-19T13:12:21.148Z,27.48
2018-04-19T13:14:50.002Z,27.77
2018-04-19T13:17:18.576Z,28.35
2018-04-19T13:19:47.072Z,25.61
2018-04-19T13:22:15.659Z,25.67
2018-04-19T13:24:44.166Z,25.72
2018-04-19T13:27:12.866Z,25.75
2018-04-19T13:29:41.357Z,28.02
2018-04-19T13:32:09.888Z,26.50
2018-04-19T13:34:38.420Z,24.24
2018-04-19T13:37:07.495Z,25.50
2018-04-19T13:39:36.224Z,25.08
2018-04-19T13:42:05.150Z,25.94
2018-04-19T13:44:34.034Z,25.85
2018-04-19T13:47:02.633Z,24.64
2018-04-19T13:49:31.368Z,24.67
2018-04-19T13:52:00.041Z,24.80
2018-04-19T13:54:28.535Z,28.01
2018-04-19T13:56:57.122Z,25.60
2018-04-19T13:59:26.867Z,26.52
2018-04-19T14:01:55.452Z,24.08
2018-04-19T14:04:24.006Z,24.46
2018-04-19T14:06:52.675Z,25.31
2018-04-19T14:09:21.646Z,25.71
2018-04-19T14:11:51.858Z,24.29
2018-04-19T14:14:20.575Z,23.93
2018-04-19T14:16:49.227Z,24.77
2018-04-19T14:19:17.761Z,23.58
2018-04-19T14:21:46.327Z,22.95
2018-04-19T14:24:14.840Z,24.98
2018-04-19T14:26:43.440Z,25.34
2018-04-19T14:29:11.950Z,32.06
2018-04-19T14:31:40.522Z,33.56
2018-04-19T14:34:09.151Z,34.00
2018-04-19T14:36:37.690Z,35.52
2018-04-19T14:39:06.889Z,34.85
2018-04-19T14:41:35.472Z,36.91
2018-04-19T14:44:04.364Z,35.53
2018-04-19T14:46:32.925Z,38.47
2018-04-19T14:49:01.498Z,37.36
2018-04-19T14:51:30.034Z,37.12
2018-04-19T14:53:58.567Z,39.06
2018-04-19T14:56:27.091Z,38.18
2018-04-19T14:58:55.811Z,38.65
2018-04-19T15:01:24.523Z,39.48
2018-04-19T15:03:53.192Z,38.87
2018-04-19T15:06:21.807Z,38.50
2018-04-19T15:08:50.356Z,39.65
2018-04-19T15:11:18.979Z,41.05
2018-04-19T15:13:47.540Z,39.81
2018-04-19T15:16:16.045Z,39.60
2018-04-19T15:18:44.695Z,39.80
2018-04-19T15:21:13.225Z,39.19
2018-04-19T15:23:41.905Z,40.29
2018-04-19T15:26:10.560Z,40.04
2018-04-19T15:28:39.163Z,40.48
2018-04-19T15:31:07.924Z,39.36
2018-04-19T15:33:36.588Z,40.87
2018-04-19T15:36:05.343Z,40.49
2018-04-19T15:38:33.955Z,41.39
2018-04-19T15:41:02.476Z,41.76
2018-04-19T15:43:31.339Z,41.81
2018-04-19T15:46:00.059Z,40.04
2018-04-19T15:48:28.628Z,41.10
2018-04-19T15:50:57.314Z,40.12
2018-04-19T15:53:26.067Z,39.83
2018-04-19T15:55:54.813Z,39.95
2018-04-19T15:58:23.420Z,41.01
2018-04-19T16:00:52.153Z,39.55
2018-04-19T16:03:21.024Z,39.39
2018-04-19T16:05:49.567Z,39.64
2018-04-19T16:08:18.203Z,40.27
2018-04-19T16:10:46.724Z,40.74
2018-04-19T16:13:15.537Z,39.93
2018-04-19T16:15:44.137Z,39.99
2018-04-19T16:18:12.683Z,40.29
2018-04-19T16:20:41.200Z,41.99
2018-04-19T16:23:09.897Z,40.07
2018-04-19T16:25:38.716Z,41.48
2018-04-19T16:28:07.467Z,40.91
2018-04-19T16:30:35.995Z,40.90
2018-04-19T16:33:04.529Z,40.68
2018-04-19T16:35:33.220Z,39.84
2018-04-19T16:38:01.928Z,40.85
2018-04-19T16:40:31.735Z,42.07
2018-04-19T16:43:00.651Z,42.11
2018-04-19T16:45:36.334Z,41.78
2018-04-19T16:48:05.872Z,42.09
2018-04-19T16:50:34.728Z,40.12
2018-04-19T16:53:03.252Z,43.11
2018-04-19T16:55:31.795Z,43.12
2018-04-19T16:58:00.539Z,47.27
2018-04-19T17:00:29.141Z,49.27
2018-04-19T17:02:57.705Z,44.02
2018-04-19T17:05:26.596Z,44.57
2018-04-19T17:07:55.301Z,46.93
2018-04-19T17:10:23.981Z,46.13
2018-04-19T17:12:52.708Z,45.67
2018-04-19T17:15:21.250Z,45.75
2018-04-19T17:17:51.063Z,46.91
2018-04-19T17:20:19.584Z,48.74
2018-04-19T17:22:48.112Z,47.51
2018-04-19T17:25:16.688Z,46.37
2018-04-19T17:27:45.365Z,47.07
2018-04-19T17:30:14.069Z,47.72
2018-04-19T17:32:42.582Z,46.30
2018-04-19T17:35:11.139Z,51.90
2018-04-19T17:37:39.692Z,48.86
2018-04-19T17:40:08.389Z,52.74
2018-04-19T17:42:36.941Z,50.02
2018-04-19T17:45:05.475Z,49.66
2018-04-19T17:47:34.223Z,53.95
2018-04-19T17:50:02.936Z,53.05
2018-04-19T17:52:31.541Z,54.32
2018-04-19T17:55:00.013Z,57.14
2018-04-19T17:57:28.908Z,62.19
2018-04-19T17:59:57.535Z,60.81
2018-04-19T18:02:26.072Z,60.22
2018-04-19T18:04:54.831Z,66.15
2018-04-19T18:07:25.439Z,66.21
2018-04-19T18:09:54.439Z,62.74
2018-04-19T18:12:23.057Z,67.92
2018-04-19T18:14:51.572Z,64.35
2018-04-19T18:17:20.285Z,67.21
2018-04-19T18:19:49.197Z,71.27
2018-04-19T18:22:17.962Z,69.37
2018-04-19T18:24:46.555Z,69.96
2018-04-19T18:27:15.372Z,69.48
2018-04-19T18:29:43.880Z,67.13
2018-04-19T18:32:12.550Z,69.01
2018-04-19T18:34:41.441Z,71.73
2018-04-19T18:37:10.285Z,74.89
2018-04-19T18:39:39.963Z,69.37
2018-04-19T18:42:08.578Z,68.87
2018-04-19T18:44:37.167Z,67.91
2018-04-19T18:47:05.724Z,66.58
2018-04-19T18:49:34.237Z,67.73
2018-04-19T18:52:02.919Z,67.77
2018-04-19T18:54:31.503Z,68.92
2018-04-19T18:57:00.295Z,74.76
2018-04-19T18:59:29.123Z,73.75
2018-04-19T19:01:57.795Z,72.78
2018-04-19T19:04:26.506Z,72.15
2018-04-19T19:06:55.184Z,68.62
2018-04-19T19:09:23.817Z,69.20
2018-04-19T19:11:52.565Z,68.22
2018-04-19T19:14:21.178Z,67.29
2018-04-19T19:16:49.926Z,69.41
2018-04-19T19:20:27.551Z,66.61
2018-04-19T19:22:56.064Z,68.21
2018-04-19T19:25:27.656Z,67.91
2018-04-19T19:27:56.431Z,68.41
2018-04-19T19:30:25.053Z,71.15
2018-04-19T19:32:53.888Z,73.16
2018-04-19T19:35:22.642Z,72.08
2018-04-19T19:37:51.573Z,70.24
2018-04-19T19:40:20.136Z,70.65
2018-04-19T19:42:48.728Z,70.11
2018-04-19T19:45:17.329Z,73.11
2018-04-19T19:47:46.237Z,71.98
2018-04-19T19:50:14.817Z,71.47
2018-04-19T19:52:43.576Z,72.27
2018-04-19T19:55:12.124Z,72.22
2018-04-19T19:57:40.844Z,75.06
2018-04-19T20:00:09.387Z,75.80
2018-04-19T20:02:38.332Z,74.86
2018-04-19T20:05:06.945Z,75.67
2018-04-19T20:07:35.457Z,76.90
2018-04-19T20:10:04.179Z,77.17
2018-04-19T20:12:32.792Z,77.82
2018-04-19T20:15:01.260Z,79.80
2018-04-19T20:17:30.167Z,78.75
2018-04-19T20:19:59.083Z,78.39
2018-04-19T20:22:27.763Z,80.38
2018-04-19T20:24:56.256Z,80.35
2018-04-19T20:27:24.837Z,80.16
2018-04-19T20:29:53.436Z,80.63
2018-04-19T20:32:22.013Z,81.26
2018-04-19T20:34:50.972Z,82.24
2018-04-19T20:37:19.649Z,81.59
2018-04-19T20:39:48.357Z,79.59
2018-04-19T20:42:17.878Z,81.61
2018-04-19T20:44:46.556Z,82.77
2018-04-19T20:47:16.970Z,83.08
2018-04-19T20:49:46.178Z,82.35
2018-04-19T20:52:16.639Z,82.94
2018-04-19T20:54:45.526Z,82.80
2018-04-19T20:57:14.132Z,83.39
2018-04-19T20:59:42.619Z,83.06
2018-04-19T21:02:11.408Z,83.42
2018-04-19T21:04:40.016Z,83.65
2018-04-19T21:07:08.647Z,83.41
2018-04-19T21:09:37.190Z,84.55
2018-04-19T21:12:05.711Z,83.94
2018-04-19T21:14:34.243Z,84.82
2018-04-19T21:17:02.820Z,83.67
2018-04-19T21:19:33.612Z,84.76
2018-04-19T21:22:02.953Z,85.59
2018-04-19T21:24:31.631Z,84.98
2018-04-19T21:27:06.824Z,84.76
